Portada
METAR-TAF:

METAR-TAF

Aeroports :

Illa Norfolk, Austràlia

latitud: 29-02S, longitud: 167-56E, altitud: 113 m

Observació

L'informe es va fer fa 47 minuts, a les 18:00 UTC
Vent 10 kt del Est/Nord-Est
Temperatura 22°C
Humitat 88%
Pressió 1018 hPa
Visibilitat 10 km o més
Cel ennuvolat a una alçada de 1500 ft

METAR: YSNF 221800Z AUTO 06010KT 9999 // BKN015 22/20 Q1018 RF00.0/010.0

Hora: 05:47 (18:47 UTC)

Pronòstic

L'informe es va fer fa 1 hora i 43 minuts, a les 17:04 UTC
Pronòstic vàlid del 22 a les 18 UTC al 23 a les 18 UTC
Vent 12 kt del Est/Nord-Est
Visibilitat 10 km o més
Núvols disperses a una alçada de 1500 ft
Cel ennuvolat a una alçada de 2000 ft
xàfecs de pluja
Temporalment
l' 22 a les 18 UTC al 23 a les 18 UTC
Visibilitat: 2000 m
Núvols disperses a una alçada de 500 ft
Cel ennuvolat a una alçada de 1000 ft
xàfecs de pluja

TAF: YSNF 221704Z 2218/2318 06012KT 9999 -SHRA SCT015 BKN020 TEMPO 2218/2318 2000 SHRA SCT005 BKN010

Observacions i pronòstics meteorològics de més de 4000 aeroports (METAR i TAF).

Les estacions disponibles són els punts grocs i vermells al mapa.

Posi el ratolí al punt desitjat per veure el nom de l'estació.

Feu clic per veure les observacions i els pronòstics meteorològics.

Per canviar el mapa: feu clic els botons verds amb una creu de color negre per apropar; al botó verd amb un guió per allunyar la imatge; o en les fletxes verdes per a mapes adjacents.


METAR-TAF: